createdAt,value
2022-08-21T00:00:07.014Z,0
2022-08-21T00:03:07.088Z,0
2022-08-21T00:06:07.054Z,0
2022-08-21T00:09:13.255Z,0
2022-08-21T00:12:07.652Z,0
2022-08-21T00:15:10.640Z,0
2022-08-21T00:18:07.855Z,0
2022-08-21T00:21:07.096Z,0
2022-08-21T00:24:18.013Z,0
2022-08-21T00:27:07.148Z,0
2022-08-21T00:30:07.079Z,0
2022-08-21T00:33:07.052Z,0
2022-08-21T00:36:07.163Z,0
2022-08-21T00:39:07.111Z,0
2022-08-21T00:42:07.179Z,0
2022-08-21T00:45:07.097Z,0
2022-08-21T00:48:07.172Z,0
2022-08-21T00:51:07.130Z,0
2022-08-21T00:54:08.019Z,0
2022-08-21T00:57:08.371Z,0
2022-08-21T01:00:07.580Z,0
2022-08-21T01:03:12.933Z,0
2022-08-21T01:06:07.026Z,0
2022-08-21T01:09:07.096Z,0
2022-08-21T01:12:07.174Z,0
2022-08-21T01:15:07.197Z,0
2022-08-21T01:18:07.192Z,0
2022-08-21T01:21:07.448Z,0
2022-08-21T01:24:07.203Z,0
2022-08-21T01:27:07.222Z,0
2022-08-21T01:30:10.673Z,0
2022-08-21T01:33:07.038Z,0
2022-08-21T01:36:07.868Z,0
2022-08-21T01:39:07.142Z,0
2022-08-21T01:42:07.726Z,0
2022-08-21T01:45:07.089Z,0
2022-08-21T01:48:07.105Z,0
2022-08-21T01:51:07.036Z,0
2022-08-21T01:54:07.085Z,0
2022-08-21T01:57:07.086Z,0
2022-08-21T02:00:07.070Z,0
2022-08-21T02:03:07.098Z,0
2022-08-21T02:06:07.057Z,0
2022-08-21T02:09:07.495Z,0
2022-08-21T02:12:07.115Z,0
2022-08-21T02:15:07.139Z,0
2022-08-21T02:18:07.044Z,0
2022-08-21T02:21:07.101Z,0
2022-08-21T02:24:07.263Z,0
2022-08-21T02:27:08.059Z,0
2022-08-21T02:30:07.126Z,0
2022-08-21T02:33:07.383Z,0
2022-08-21T02:36:07.072Z,0
2022-08-21T02:39:07.090Z,0
2022-08-21T02:42:07.049Z,0
2022-08-21T02:45:07.120Z,0
2022-08-21T02:48:08.623Z,0
2022-08-21T02:51:07.091Z,0
2022-08-21T02:54:07.069Z,0
2022-08-21T02:57:07.195Z,0
2022-08-21T03:00:07.288Z,0
2022-08-21T03:03:07.103Z,0
2022-08-21T03:06:07.119Z,0
2022-08-21T03:09:07.319Z,0
2022-08-21T03:12:07.053Z,0
2022-08-21T03:15:07.145Z,0
2022-08-21T03:18:07.064Z,0
2022-08-21T03:21:07.622Z,0
2022-08-21T03:24:11.147Z,0
2022-08-21T03:27:11.498Z,0
2022-08-21T03:30:07.216Z,0
2022-08-21T03:33:07.047Z,0
2022-08-21T03:36:07.064Z,0
2022-08-21T03:39:07.034Z,3
2022-08-21T03:42:07.081Z,3
2022-08-21T03:45:07.104Z,7
2022-08-21T03:48:07.562Z,10
2022-08-21T03:51:07.042Z,20
2022-08-21T03:54:07.059Z,30
2022-08-21T03:57:07.044Z,43
2022-08-21T04:00:07.127Z,63
2022-08-21T04:03:07.257Z,93
2022-08-21T04:06:07.074Z,123
2022-08-21T04:09:07.736Z,163
2022-08-21T04:12:07.115Z,210
2022-08-21T04:15:07.169Z,257
2022-08-21T04:18:07.109Z,317
2022-08-21T04:21:13.336Z,387
2022-08-21T04:24:07.097Z,457
2022-08-21T04:27:07.018Z,523
2022-08-21T04:30:07.222Z,577
2022-08-21T04:33:07.843Z,640
2022-08-21T04:36:07.060Z,733
2022-08-21T04:39:14.333Z,863
2022-08-21T04:42:07.052Z,973
2022-08-21T04:45:07.053Z,1110
2022-08-21T04:48:10.811Z,1190
2022-08-21T04:51:07.072Z,1300
2022-08-21T04:54:08.088Z,1493
2022-08-21T04:57:07.035Z,1697
2022-08-21T05:00:09.233Z,1800
2022-08-21T05:03:07.254Z,1910
2022-08-21T05:06:07.051Z,2073
2022-08-21T05:09:08.836Z,2253
2022-08-21T05:12:07.111Z,2437
2022-08-21T05:15:07.074Z,2727
2022-08-21T05:18:07.951Z,2963
2022-08-21T05:21:07.003Z,3060
2022-08-21T05:24:07.058Z,3090
2022-08-21T05:27:10.305Z,3300
2022-08-21T05:30:07.318Z,3520
2022-08-21T05:33:07.441Z,3770
2022-08-21T05:36:07.082Z,4140
2022-08-21T05:39:07.139Z,5037
2022-08-21T05:42:07.073Z,5580
2022-08-21T05:45:07.213Z,6180
2022-08-21T05:48:09.474Z,6407
2022-08-21T05:51:07.143Z,6877
2022-08-21T05:54:07.193Z,7857
2022-08-21T05:57:07.510Z,8040
2022-08-21T06:00:07.310Z,8293
2022-08-21T06:03:07.368Z,8300
2022-08-21T06:06:07.068Z,7770
2022-08-21T06:09:07.421Z,8120
2022-08-21T06:12:07.087Z,8597
2022-08-21T06:15:07.088Z,9130
2022-08-21T06:18:07.113Z,9900
2022-08-21T06:21:07.480Z,10990
2022-08-21T06:24:07.083Z,11477
2022-08-21T06:27:07.074Z,11160
2022-08-21T06:30:07.170Z,12000
2022-08-21T06:33:07.448Z,12963
2022-08-21T06:36:07.074Z,14193
2022-08-21T06:39:32.706Z,14720
2022-08-21T06:42:12.292Z,13620
2022-08-21T06:45:07.121Z,13110
2022-08-21T06:48:07.073Z,13330
2022-08-21T06:51:07.120Z,14397
2022-08-21T06:54:07.105Z,14547
2022-08-21T06:57:07.129Z,14427
2022-08-21T07:00:07.196Z,14427
2022-08-21T07:03:07.556Z,14807
2022-08-21T07:06:07.070Z,15467
2022-08-21T07:09:07.098Z,16373
2022-08-21T07:12:07.069Z,17153
2022-08-21T07:15:07.121Z,17950
2022-08-21T07:18:07.068Z,17573
2022-08-21T07:21:07.091Z,18137
2022-08-21T07:24:07.122Z,18693
2022-08-21T07:27:12.320Z,18987
2022-08-21T07:30:07.173Z,19723
2022-08-21T07:33:07.644Z,20110
2022-08-21T07:36:07.088Z,21493
2022-08-21T07:39:07.722Z,22780
2022-08-21T07:42:14.616Z,24213
2022-08-21T07:45:07.149Z,25663
2022-08-21T07:48:07.149Z,26433
2022-08-21T07:51:07.111Z,26207
2022-08-21T07:54:07.163Z,26603
2022-08-21T07:57:07.093Z,27090
2022-08-21T08:00:07.214Z,27333
2022-08-21T08:03:07.591Z,29437
2022-08-21T08:06:07.206Z,31240
2022-08-21T08:09:07.124Z,32683
2022-08-21T08:12:07.075Z,35263
2022-08-21T08:15:07.117Z,38597
2022-08-21T08:18:07.172Z,41277
2022-08-21T08:21:07.099Z,44177
2022-08-21T08:24:24.907Z,49547
2022-08-21T08:27:07.084Z,57080
2022-08-21T08:30:07.163Z,58337
2022-08-21T08:33:07.695Z,60307
2022-08-21T08:36:16.771Z,51517
2022-08-21T08:39:13.041Z,22873
2022-08-21T08:42:37.047Z,31740
2022-08-21T08:45:07.192Z,10833
2022-08-21T08:48:07.166Z,6140
2022-08-21T08:51:07.116Z,6033
2022-08-21T08:54:07.058Z,7843
2022-08-21T08:57:07.075Z,10317
2022-08-21T09:00:10.344Z,13217
2022-08-21T09:03:07.776Z,15517
2022-08-21T09:06:09.704Z,17463
2022-08-21T09:09:07.064Z,18480
2022-08-21T09:12:07.602Z,19343
2022-08-21T09:15:07.078Z,20383
2022-08-21T09:18:12.322Z,25830
2022-08-21T09:21:07.102Z,23507
2022-08-21T09:24:07.109Z,24703
2022-08-21T09:27:07.142Z,32700
2022-08-21T09:30:08.811Z,46110
2022-08-21T09:33:07.706Z,32950
2022-08-21T09:36:07.081Z,32743
2022-08-21T09:39:07.068Z,69033
2022-08-21T09:42:07.066Z,68587
2022-08-21T09:45:07.089Z,24533
2022-08-21T09:48:07.098Z,19810
2022-08-21T09:51:07.087Z,25183
2022-08-21T09:54:07.079Z,75767
2022-08-21T09:57:07.049Z,14797
2022-08-21T10:00:07.106Z,15300
2022-08-21T10:03:07.115Z,17477
2022-08-21T10:06:11.452Z,15943
2022-08-21T10:09:07.045Z,19783
2022-08-21T10:12:13.086Z,68563
2022-08-21T10:15:12.089Z,44213
2022-08-21T10:18:07.145Z,76160
2022-08-21T10:21:12.071Z,18767
2022-08-21T10:24:07.120Z,74117
2022-08-21T10:27:07.043Z,73313
2022-08-21T10:30:07.222Z,73747
2022-08-21T10:33:07.117Z,73867
2022-08-21T10:36:07.116Z,73953
2022-08-21T10:39:42.754Z,73050
2022-08-21T10:42:07.113Z,72253
2022-08-21T10:45:07.091Z,73173
2022-08-21T10:48:07.141Z,75640
2022-08-21T10:51:07.077Z,74817
2022-08-21T10:54:07.117Z,34553
2022-08-21T10:57:12.091Z,19127
2022-08-21T11:00:07.408Z,22890
2022-08-21T11:03:07.247Z,80057
2022-08-21T11:06:07.128Z,80740
2022-08-21T11:09:07.501Z,79620
2022-08-21T11:12:26.193Z,78067
2022-08-21T11:15:08.437Z,65200
2022-08-21T11:18:07.111Z,77187
2022-08-21T11:21:07.086Z,27890
2022-08-21T11:24:07.959Z,68790
2022-08-21T11:27:07.098Z,14920
2022-08-21T11:30:07.159Z,14847
2022-08-21T11:33:07.376Z,16660
2022-08-21T11:36:07.192Z,22513
2022-08-21T11:39:07.058Z,84047
2022-08-21T11:42:12.580Z,24143
2022-08-21T11:45:07.111Z,22257
2022-08-21T11:48:07.107Z,18980
2022-08-21T11:51:07.132Z,19983
2022-08-21T11:54:11.479Z,81070
2022-08-21T11:57:07.191Z,79720
2022-08-21T12:00:07.236Z,75803
2022-08-21T12:03:07.102Z,76967
2022-08-21T12:06:07.046Z,19470
2022-08-21T12:09:07.028Z,19463
2022-08-21T12:12:08.446Z,26200
2022-08-21T12:15:07.179Z,70400
2022-08-21T12:18:07.104Z,72993
2022-08-21T12:21:07.077Z,24637
2022-08-21T12:24:07.095Z,64280
2022-08-21T12:27:07.167Z,75683
2022-08-21T12:30:07.204Z,29867
2022-08-21T12:33:07.310Z,27710
2022-08-21T12:36:07.131Z,15303
2022-08-21T12:39:07.104Z,16527
2022-08-21T12:42:09.016Z,16807
2022-08-21T12:45:07.113Z,75050
2022-08-21T12:48:07.067Z,72147
2022-08-21T12:51:07.105Z,71393
2022-08-21T12:54:07.064Z,75527
2022-08-21T12:57:07.087Z,74177
2022-08-21T13:00:07.288Z,20373
2022-08-21T13:03:07.244Z,18500
2022-08-21T13:06:07.087Z,15767
2022-08-21T13:09:07.064Z,39713
2022-08-21T13:12:07.101Z,61113
2022-08-21T13:15:13.290Z,42490
2022-08-21T13:18:07.763Z,65413
2022-08-21T13:21:07.101Z,66360
2022-08-21T13:24:43.660Z,66013
2022-08-21T13:27:07.072Z,64720
2022-08-21T13:30:07.259Z,38347
2022-08-21T13:33:13.147Z,65057
2022-08-21T13:36:07.176Z,64333
2022-08-21T13:39:07.125Z,63687
2022-08-21T13:42:10.381Z,63217
2022-08-21T13:45:07.180Z,61633
2022-08-21T13:48:12.431Z,63680
2022-08-21T13:51:07.020Z,63970
2022-08-21T13:54:07.073Z,63103
2022-08-21T13:57:07.112Z,62677
2022-08-21T14:00:07.137Z,62187
2022-08-21T14:03:07.196Z,61563
2022-08-21T14:06:07.225Z,60043
2022-08-21T14:09:07.133Z,56217
2022-08-21T14:12:07.027Z,55217
2022-08-21T14:15:07.062Z,55850
2022-08-21T14:18:07.108Z,54770
2022-08-21T14:21:07.085Z,53700
2022-08-21T14:24:07.060Z,52910
2022-08-21T14:27:07.126Z,51393
2022-08-21T14:30:11.537Z,9880
2022-08-21T14:33:07.618Z,10343
2022-08-21T14:36:07.116Z,10200
2022-08-21T14:39:08.929Z,11297
2022-08-21T14:42:07.029Z,12313
2022-08-21T14:45:07.180Z,41080
2022-08-21T14:48:07.107Z,41067
2022-08-21T14:51:07.431Z,20043
2022-08-21T14:54:07.052Z,37233
2022-08-21T14:57:07.115Z,45830
2022-08-21T15:00:08.884Z,12747
2022-08-21T15:03:07.252Z,33543
2022-08-21T15:06:07.105Z,10797
2022-08-21T15:09:07.219Z,10733
2022-08-21T15:12:07.061Z,10300
2022-08-21T15:15:07.088Z,11133
2022-08-21T15:18:07.101Z,11450
2022-08-21T15:21:07.065Z,11730
2022-08-21T15:24:07.124Z,40100
2022-08-21T15:27:07.054Z,41337
2022-08-21T15:30:07.151Z,13460
2022-08-21T15:33:07.239Z,38737
2022-08-21T15:36:07.066Z,37560
2022-08-21T15:39:07.107Z,37027
2022-08-21T15:42:17.511Z,37867
2022-08-21T15:45:07.085Z,37520
2022-08-21T15:48:07.079Z,36083
2022-08-21T15:51:07.090Z,34683
2022-08-21T15:54:07.071Z,34457
2022-08-21T15:57:07.052Z,33753
2022-08-21T16:00:07.130Z,32270
2022-08-21T16:03:07.642Z,30117
2022-08-21T16:06:07.078Z,30040
2022-08-21T16:09:07.050Z,29863
2022-08-21T16:12:07.108Z,29577
2022-08-21T16:15:07.106Z,8267
2022-08-21T16:18:07.085Z,21033
2022-08-21T16:21:07.069Z,8630
2022-08-21T16:24:07.269Z,25207
2022-08-21T16:27:12.750Z,26057
2022-08-21T16:30:07.156Z,25660
2022-08-21T16:33:07.235Z,20980
2022-08-21T16:36:07.317Z,22577
2022-08-21T16:39:07.128Z,20500
2022-08-21T16:42:07.086Z,13663
2022-08-21T16:45:07.061Z,20803
2022-08-21T16:48:07.161Z,20653
2022-08-21T16:51:07.079Z,20740
2022-08-21T16:54:07.222Z,19763
2022-08-21T16:57:07.128Z,18633
2022-08-21T17:00:07.109Z,17470
2022-08-21T17:03:07.593Z,15403
2022-08-21T17:06:07.270Z,13847
2022-08-21T17:09:07.233Z,14657
2022-08-21T17:12:07.088Z,6437
2022-08-21T17:15:07.135Z,4937
2022-08-21T17:18:07.067Z,4520
2022-08-21T17:21:07.489Z,4303
2022-08-21T17:24:07.098Z,4137
2022-08-21T17:27:07.125Z,3943
2022-08-21T17:30:07.160Z,3720
2022-08-21T17:33:07.467Z,3123
2022-08-21T17:36:07.088Z,2553
2022-08-21T17:39:07.150Z,2810
2022-08-21T17:42:07.105Z,2483
2022-08-21T17:45:07.410Z,2157
2022-08-21T17:48:07.105Z,1897
2022-08-21T17:51:11.124Z,1700
2022-08-21T17:54:07.134Z,1497
2022-08-21T17:57:07.137Z,1313
2022-08-21T18:00:07.160Z,1193
2022-08-21T18:03:07.063Z,1130
2022-08-21T18:06:07.497Z,1070
2022-08-21T18:09:07.075Z,990
2022-08-21T18:12:07.074Z,827
2022-08-21T18:15:07.102Z,700
2022-08-21T18:18:07.126Z,587
2022-08-21T18:21:07.083Z,483
2022-08-21T18:24:07.056Z,400
2022-08-21T18:27:07.056Z,320
2022-08-21T18:30:07.081Z,253
2022-08-21T18:33:07.393Z,197
2022-08-21T18:36:13.324Z,143
2022-08-21T18:39:43.410Z,103
2022-08-21T18:42:07.089Z,73
2022-08-21T18:45:07.225Z,50
2022-08-21T18:48:09.842Z,33
2022-08-21T18:51:10.839Z,20
2022-08-21T18:57:14.971Z,7
2022-08-21T19:00:10.556Z,3
2022-08-21T19:03:12.236Z,3
2022-08-21T19:06:11.902Z,3
2022-08-21T19:09:07.286Z,0
2022-08-21T19:12:10.434Z,0
2022-08-21T19:15:07.338Z,0
2022-08-21T19:18:08.241Z,0
2022-08-21T19:21:09.708Z,0
2022-08-21T19:24:29.254Z,0
2022-08-21T19:27:07.079Z,0
2022-08-21T19:30:08.060Z,0
2022-08-21T19:33:08.304Z,0
2022-08-21T19:36:07.058Z,0
2022-08-21T19:39:13.251Z,0
2022-08-21T19:42:07.064Z,0
2022-08-21T19:45:07.934Z,0
2022-08-21T19:48:09.437Z,0
2022-08-21T19:51:07.148Z,0
2022-08-21T19:54:13.035Z,0
2022-08-21T19:57:10.445Z,0
2022-08-21T20:00:11.010Z,0
2022-08-21T20:03:09.976Z,0
2022-08-21T20:06:07.921Z,0
2022-08-21T20:09:11.889Z,0
2022-08-21T20:12:13.447Z,0
2022-08-21T20:18:10.518Z,0
2022-08-21T20:21:11.029Z,0
2022-08-21T20:24:08.817Z,0
2022-08-21T20:27:10.466Z,0
2022-08-21T20:30:07.952Z,0
2022-08-21T20:33:07.717Z,0
2022-08-21T20:36:07.259Z,0
2022-08-21T20:39:13.468Z,0
2022-08-21T20:42:09.176Z,0
2022-08-21T20:45:14.347Z,0
2022-08-21T20:48:08.494Z,0
2022-08-21T20:51:07.053Z,0
2022-08-21T20:54:07.775Z,0
2022-08-21T20:57:15.814Z,0
2022-08-21T21:00:07.381Z,0
2022-08-21T21:03:10.663Z,0
2022-08-21T21:06:07.118Z,0
2022-08-21T21:09:07.306Z,0
2022-08-21T21:12:08.667Z,0
2022-08-21T21:15:09.883Z,0
2022-08-21T21:18:10.567Z,0
2022-08-21T21:21:07.714Z,0
2022-08-21T21:24:07.054Z,0
2022-08-21T21:27:20.787Z,0
2022-08-21T21:30:14.532Z,0
2022-08-21T21:33:07.567Z,0
2022-08-21T21:36:07.053Z,0
2022-08-21T21:39:07.024Z,0
2022-08-21T21:42:08.648Z,0
2022-08-21T21:45:07.123Z,0
2022-08-21T21:48:07.059Z,0
2022-08-21T21:54:09.350Z,0
2022-08-21T21:57:07.320Z,0
2022-08-21T22:00:08.149Z,0
2022-08-21T22:03:13.278Z,0
2022-08-21T22:06:09.703Z,0
2022-08-21T22:09:12.427Z,0
2022-08-21T22:12:09.441Z,0
2022-08-21T22:15:07.192Z,0
2022-08-21T22:18:11.484Z,0
2022-08-21T22:21:07.088Z,0
2022-08-21T22:24:13.553Z,0
2022-08-21T22:27:08.429Z,0
2022-08-21T22:30:09.640Z,0
2022-08-21T22:33:14.571Z,0
2022-08-21T22:36:07.051Z,0
2022-08-21T22:39:07.171Z,0
2022-08-21T22:42:08.865Z,0
2022-08-21T22:45:14.476Z,0
2022-08-21T22:48:11.036Z,0
2022-08-21T22:51:09.457Z,0
2022-08-21T22:54:21.872Z,0
2022-08-21T22:57:07.316Z,0
2022-08-21T23:00:07.142Z,0
2022-08-21T23:03:21.051Z,0
2022-08-21T23:06:16.801Z,0
2022-08-21T23:09:11.150Z,0
2022-08-21T23:12:36.045Z,0
2022-08-21T23:15:08.626Z,0
2022-08-21T23:18:07.097Z,0
2022-08-21T23:21:11.240Z,0
2022-08-21T23:24:21.403Z,0
2022-08-21T23:27:11.989Z,0
2022-08-21T23:30:09.482Z,0
2022-08-21T23:33:11.507Z,0
2022-08-21T23:36:10.478Z,0
2022-08-21T23:39:09.846Z,0
2022-08-21T23:42:07.033Z,0
2022-08-21T23:45:19.926Z,0
2022-08-21T23:48:07.321Z,0
2022-08-21T23:51:07.834Z,0
2022-08-21T23:54:07.610Z,0
2022-08-21T23:57:12.754Z,0
